Accueil
METAR-TAF:

METAR-TAF

Aéroports :

Aéroport de Toulouse-Blagnac

Toulouse, France

latitude: 43-38N, longitude: 001-22E, altitude: 152 m

Observation

Le bulletin a été fait il y a 21 minutes, à 23:00 UTC
Vent 5 kt de ouest/sud-ouest, variant entre sud et ouest
Température 11°C
Humidité 87%
Pression 1029 hPa
Visibilité 10 km ou plus
pas de nuages en-dessous de 1500 mètres et pas de cumulonimbus.

METAR: LFBO 232300Z AUTO 24005KT 190V260 CAVOK 11/09 Q1029 NOSIG

Heure: 01:21 (23:21 UTC)

Prévision

Le bulletin a été fait il y a 6 heures et 21 minutes, à 17:00 UTC
Prévision valable du 23 à 18 UTC au 24 à 24 UTC
Vent 8 kt de ouest
Visibilité 10 km ou plus
pas de nuages en-dessous de 1500 mètres et pas de cumulonimbus.
Probabilité 40% :
Temporairement
du 24 à 03 UTC au 24 à 07 UTC
Visibilité: 4000 m
brume

TAF: LFBO 231700Z 2318/2424 27008KT CAVOK PROB40 TEMPO 2403/2407 4000 BR

Observations et prévisions météorologiques de plus de 4000 aéroports (messages METAR et TAF).

Les stations disponibles sont représentées par des disques jaunes et rouges sur la carte.

Passer la souris dessus pour voir le nom de la station.

Cliquer dessus pour voir les observations et prévisions météorologiques.

Pour changer de carte: cliquez sur les boutons verts avec une croix noire pour zoomer, sur le bouton vert avec un tiret pour effectuer un zoom arrière, ou sur les flèches vertes pour les cartes adjacentes.


METAR-TAF: